createdAt,value
2023-03-07T00:00:55.117Z,2.03
2023-03-07T00:03:22.165Z,2.50
2023-03-07T00:05:49.059Z,3.20
2023-03-07T00:08:15.911Z,2.70
2023-03-07T00:10:42.895Z,2.30
2023-03-07T00:13:09.830Z,2.73
2023-03-07T00:15:38.969Z,2.77
2023-03-07T00:18:05.880Z,1.87
2023-03-07T00:20:32.799Z,2.07
2023-03-07T00:22:59.752Z,2.17
2023-03-07T00:25:26.665Z,2.30
2023-03-07T00:27:53.543Z,2.20
2023-03-07T00:30:20.375Z,2.00
2023-03-07T00:32:47.198Z,2.20
2023-03-07T00:35:14.273Z,2.80
2023-03-07T00:37:41.149Z,5.10
2023-03-07T00:40:09.416Z,4.87
2023-03-07T00:42:36.238Z,2.50
2023-03-07T00:45:03.979Z,3.23
2023-03-07T00:47:30.888Z,5.23
2023-03-07T00:49:57.694Z,2.83
2023-03-07T00:52:24.654Z,2.67
2023-03-07T00:54:51.533Z,2.80
2023-03-07T00:57:18.444Z,3.30
2023-03-07T00:59:45.389Z,2.63
2023-03-07T01:02:12.206Z,4.40
2023-03-07T01:04:39.051Z,2.80
2023-03-07T01:07:06.118Z,3.47
2023-03-07T01:09:32.991Z,3.43
2023-03-07T01:11:59.813Z,1.87
2023-03-07T01:14:26.720Z,4.70
2023-03-07T01:16:53.576Z,2.80
2023-03-07T01:19:20.525Z,2.10
2023-03-07T01:21:47.493Z,3.47
2023-03-07T01:24:16.445Z,2.17
2023-03-07T01:26:43.289Z,2.20
2023-03-07T01:29:11.682Z,3.17
2023-03-07T01:31:39.076Z,1.60
2023-03-07T01:34:06.247Z,2.93
2023-03-07T01:36:34.891Z,2.17
2023-03-07T01:39:14.442Z,2.77
2023-03-07T01:41:41.910Z,2.57
2023-03-07T01:44:14.840Z,2.47
2023-03-07T01:46:47.995Z,3.57
2023-03-07T01:49:31.163Z,1.77
2023-03-07T01:52:12.065Z,2.73
2023-03-07T01:54:43.087Z,2.67
2023-03-07T01:57:10.039Z,2.37
2023-03-07T01:59:42.552Z,2.80
2023-03-07T02:02:19.292Z,2.73
2023-03-07T02:04:59.651Z,2.90
2023-03-07T02:07:31.585Z,2.60
2023-03-07T02:10:00.054Z,2.57
2023-03-07T02:12:27.628Z,2.57
2023-03-07T02:14:54.613Z,5.03
2023-03-07T02:17:21.669Z,3.40
2023-03-07T02:20:18.287Z,2.17
2023-03-07T02:22:45.276Z,2.60
2023-03-07T02:25:40.314Z,2.93
2023-03-07T02:28:10.491Z,3.60
2023-03-07T02:30:38.587Z,2.70
2023-03-07T02:33:05.551Z,4.70
2023-03-07T02:35:32.500Z,2.80
2023-03-07T02:38:03.361Z,3.87
2023-03-07T02:40:32.393Z,2.57
2023-03-07T02:43:04.280Z,2.80
2023-03-07T02:45:31.133Z,2.83
2023-03-07T02:47:58.007Z,2.33
2023-03-07T02:50:24.955Z,4.50
2023-03-07T02:52:51.804Z,2.53
2023-03-07T02:55:18.918Z,2.50
2023-03-07T02:57:46.222Z,3.43
2023-03-07T03:00:13.460Z,2.63
2023-03-07T03:02:40.427Z,4.33
2023-03-07T03:05:07.852Z,3.57
2023-03-07T03:07:34.916Z,4.80
2023-03-07T03:10:01.949Z,3.63
2023-03-07T03:12:28.910Z,3.63
2023-03-07T03:14:56.043Z,4.37
2023-03-07T03:17:23.589Z,2.77
2023-03-07T03:19:50.646Z,2.30
2023-03-07T03:22:17.701Z,4.03
2023-03-07T03:24:44.543Z,1.90
2023-03-07T03:27:11.355Z,2.37
2023-03-07T03:29:38.246Z,3.37
2023-03-07T03:32:05.586Z,1.97
2023-03-07T03:34:32.497Z,4.97
2023-03-07T03:36:59.354Z,2.13
2023-03-07T03:39:26.203Z,2.43
2023-03-07T03:41:53.162Z,3.33
2023-03-07T03:44:20.047Z,3.83
2023-03-07T03:46:48.695Z,3.73
2023-03-07T03:49:16.981Z,3.13
2023-03-07T03:51:43.852Z,3.70
2023-03-07T03:54:10.739Z,3.37
2023-03-07T03:56:37.592Z,2.10
2023-03-07T03:59:04.449Z,2.47
2023-03-07T04:01:31.440Z,2.73
2023-03-07T04:03:58.939Z,3.77
2023-03-07T04:06:28.847Z,1.50
2023-03-07T04:08:56.555Z,2.93
2023-03-07T04:11:24.815Z,2.90
2023-03-07T04:13:52.126Z,2.73
2023-03-07T04:16:19.245Z,2.13
2023-03-07T04:18:46.269Z,1.93
2023-03-07T04:21:13.091Z,2.87
2023-03-07T04:23:40.089Z,3.13
2023-03-07T04:26:08.765Z,3.07
2023-03-07T04:28:49.277Z,5.70
2023-03-07T04:31:22.310Z,3.27
2023-03-07T04:33:49.839Z,3.20
2023-03-07T04:36:17.691Z,2.43
2023-03-07T04:38:46.238Z,2.53
2023-03-07T04:41:18.837Z,2.57
2023-03-07T04:43:46.100Z,3.00
2023-03-07T04:46:14.812Z,3.17
2023-03-07T04:48:41.820Z,2.83
2023-03-07T04:51:08.821Z,2.17
2023-03-07T04:53:35.673Z,4.30
2023-03-07T04:56:05.104Z,3.63
2023-03-07T04:58:32.820Z,3.17
2023-03-07T05:01:01.414Z,3.73
2023-03-07T05:03:28.545Z,4.77
2023-03-07T05:05:55.780Z,4.50
2023-03-07T05:08:23.091Z,3.50
2023-03-07T05:10:50.259Z,2.67
2023-03-07T05:13:17.253Z,3.30
2023-03-07T05:15:44.064Z,2.97
2023-03-07T05:18:10.938Z,3.23
2023-03-07T05:20:38.097Z,2.60
2023-03-07T05:23:05.015Z,3.63
2023-03-07T05:25:31.873Z,4.20
2023-03-07T05:27:58.751Z,4.17
2023-03-07T05:30:26.036Z,3.40
2023-03-07T05:32:52.887Z,4.33
2023-03-07T05:35:21.115Z,4.13
2023-03-07T05:37:47.999Z,3.80
2023-03-07T05:40:15.479Z,3.83
2023-03-07T05:42:42.510Z,4.40
2023-03-07T05:45:10.496Z,17.73
2023-03-07T05:47:38.938Z,16.00
2023-03-07T05:50:06.767Z,17.57
2023-03-07T05:52:33.723Z,11.03
2023-03-07T05:55:00.643Z,6.37
2023-03-07T05:57:27.482Z,3.53
2023-03-07T05:59:54.374Z,4.20
2023-03-07T06:02:21.314Z,2.50
2023-03-07T06:04:48.236Z,3.10
2023-03-07T06:07:15.111Z,2.97
2023-03-07T06:09:41.969Z,3.73
2023-03-07T06:12:10.574Z,4.27
2023-03-07T06:14:37.471Z,4.00
2023-03-07T06:17:05.731Z,5.07
2023-03-07T06:19:32.692Z,3.13
2023-03-07T06:21:59.782Z,3.37
2023-03-07T06:24:26.627Z,4.30
2023-03-07T06:26:53.532Z,3.03
2023-03-07T06:29:20.329Z,5.00
2023-03-07T06:31:47.298Z,5.23
2023-03-07T06:34:14.200Z,4.83
2023-03-07T06:36:41.109Z,4.03
2023-03-07T06:39:07.933Z,3.93
2023-03-07T06:41:34.761Z,4.87
2023-03-07T06:44:01.661Z,4.47
2023-03-07T06:46:28.468Z,4.93
2023-03-07T06:48:55.663Z,4.00
2023-03-07T06:51:22.512Z,3.47
2023-03-07T06:53:49.361Z,3.77
2023-03-07T06:56:16.157Z,5.00
2023-03-07T06:58:43.065Z,3.97
2023-03-07T07:01:19.878Z,5.23
2023-03-07T07:03:46.993Z,2.70
2023-03-07T07:06:13.835Z,4.73
2023-03-07T07:08:41.016Z,2.80
2023-03-07T07:11:07.952Z,4.87
2023-03-07T07:13:34.770Z,4.30
2023-03-07T07:16:06.516Z,3.70
2023-03-07T07:18:33.787Z,3.67
2023-03-07T07:21:00.977Z,3.40
2023-03-07T07:23:27.955Z,6.10
2023-03-07T07:25:55.309Z,3.90
2023-03-07T07:28:22.697Z,3.53
2023-03-07T07:30:49.619Z,5.60
2023-03-07T07:33:17.048Z,3.00
2023-03-07T07:35:44.798Z,3.33
2023-03-07T07:38:12.160Z,2.77
2023-03-07T07:40:39.351Z,4.00
2023-03-07T07:43:06.201Z,3.60
2023-03-07T07:45:33.204Z,2.67
2023-03-07T07:48:00.034Z,5.50
2023-03-07T07:50:26.867Z,3.60
2023-03-07T07:52:54.424Z,5.20
2023-03-07T07:55:21.630Z,3.27
2023-03-07T07:57:48.520Z,2.60
2023-03-07T08:00:21.106Z,3.53
2023-03-07T08:02:51.556Z,4.60
2023-03-07T08:05:20.598Z,3.57
2023-03-07T08:07:47.662Z,2.80
2023-03-07T08:10:16.688Z,3.70
2023-03-07T08:12:44.630Z,4.53
2023-03-07T08:15:12.626Z,3.20
2023-03-07T08:17:39.690Z,2.60
2023-03-07T08:20:10.074Z,3.43
2023-03-07T08:22:37.742Z,2.83
2023-03-07T08:25:06.695Z,4.63
2023-03-07T08:27:33.929Z,3.27
2023-03-07T08:30:01.380Z,2.93
2023-03-07T08:32:28.819Z,2.30
2023-03-07T08:34:55.748Z,2.47
2023-03-07T08:37:22.628Z,1.73
2023-03-07T08:39:49.555Z,2.07
2023-03-07T08:42:16.750Z,1.90
2023-03-07T08:44:43.761Z,2.50
2023-03-07T08:47:12.220Z,1.73
2023-03-07T08:49:40.057Z,2.57
2023-03-07T08:52:07.083Z,2.53
2023-03-07T08:54:33.947Z,3.30
2023-03-07T08:57:00.854Z,2.00
2023-03-07T08:59:27.796Z,3.00
2023-03-07T09:01:56.255Z,2.27
2023-03-07T09:04:23.456Z,3.47
2023-03-07T09:06:50.371Z,4.10
2023-03-07T09:09:17.288Z,4.80
2023-03-07T09:11:44.252Z,2.53
2023-03-07T09:14:11.214Z,3.37
2023-03-07T09:16:38.226Z,1.83
2023-03-07T09:19:05.852Z,3.50
2023-03-07T09:21:32.822Z,2.57
2023-03-07T09:23:59.712Z,3.13
2023-03-07T09:26:26.633Z,2.23
2023-03-07T09:28:53.489Z,3.10
2023-03-07T09:31:20.416Z,2.07
2023-03-07T09:33:47.428Z,2.27
2023-03-07T09:36:15.324Z,2.10
2023-03-07T09:38:42.391Z,1.60
2023-03-07T09:41:29.797Z,2.73
2023-03-07T09:44:15.228Z,1.87
2023-03-07T09:46:45.071Z,2.27
2023-03-07T09:49:28.574Z,2.83
2023-03-07T09:51:58.955Z,1.47
2023-03-07T09:54:52.034Z,2.27
2023-03-07T09:57:27.884Z,2.20
2023-03-07T10:00:07.685Z,1.37
2023-03-07T10:02:37.450Z,1.30
2023-03-07T10:05:28.733Z,1.10
2023-03-07T10:07:56.180Z,2.53
2023-03-07T10:10:45.242Z,1.97
2023-03-07T10:13:37.651Z,1.60
2023-03-07T10:16:18.388Z,2.73
2023-03-07T10:18:52.485Z,2.63
2023-03-07T10:22:04.755Z,1.53
2023-03-07T10:25:12.576Z,0.93
2023-03-07T10:27:39.770Z,1.57
2023-03-07T10:30:15.873Z,0.70
2023-03-07T10:32:47.982Z,2.27
2023-03-07T10:35:21.458Z,1.60
2023-03-07T10:37:58.735Z,1.13
2023-03-07T10:40:48.845Z,1.13
2023-03-07T10:43:24.471Z,0.67
2023-03-07T10:46:26.476Z,1.37
2023-03-07T10:48:56.427Z,1.27
2023-03-07T10:51:53.772Z,2.10
2023-03-07T10:54:32.785Z,1.67
2023-03-07T10:57:11.309Z,1.93
2023-03-07T10:59:40.599Z,1.97
2023-03-07T11:02:31.976Z,1.67
2023-03-07T11:04:59.437Z,0.73
2023-03-07T11:07:31.995Z,1.17
2023-03-07T11:10:00.863Z,1.37
2023-03-07T11:12:30.688Z,1.33
2023-03-07T11:15:18.930Z,1.87
2023-03-07T11:17:48.539Z,1.73
2023-03-07T11:20:30.464Z,0.87
2023-03-07T11:23:15.906Z,2.07
2023-03-07T11:25:43.166Z,1.70
2023-03-07T11:28:34.832Z,1.37
2023-03-07T11:31:16.716Z,1.23
2023-03-07T11:33:59.173Z,2.13
2023-03-07T11:36:37.576Z,0.83
2023-03-07T11:39:20.744Z,1.50
2023-03-07T11:41:53.753Z,1.33
2023-03-07T11:44:39.457Z,3.60
2023-03-07T11:47:30.925Z,2.77
2023-03-07T11:50:21.313Z,1.30
2023-03-07T11:52:51.171Z,2.60
2023-03-07T11:55:25.028Z,2.13
2023-03-07T11:58:11.082Z,1.57
2023-03-07T12:00:55.763Z,1.80
2023-03-07T12:04:01.631Z,1.80
2023-03-07T12:07:05.816Z,1.70
2023-03-07T12:09:52.462Z,2.17
2023-03-07T12:12:55.010Z,2.27
2023-03-07T12:15:34.074Z,1.93
2023-03-07T12:18:51.022Z,1.97
2023-03-07T12:22:15.550Z,1.77
2023-03-07T12:25:14.857Z,1.10
2023-03-07T12:28:08.632Z,1.33
2023-03-07T12:31:19.679Z,1.80
2023-03-07T12:34:07.586Z,0.90
2023-03-07T12:36:59.517Z,1.17
2023-03-07T12:39:40.833Z,1.07
2023-03-07T12:42:26.376Z,2.80
2023-03-07T12:45:03.575Z,1.37
2023-03-07T12:47:42.352Z,1.40
2023-03-07T12:50:23.443Z,1.10
2023-03-07T12:52:55.219Z,1.17
2023-03-07T12:55:22.149Z,1.00
2023-03-07T12:58:04.231Z,1.47
2023-03-07T13:00:32.211Z,1.23
2023-03-07T13:03:06.879Z,1.67
2023-03-07T13:05:38.107Z,1.20
2023-03-07T13:08:06.926Z,1.13
2023-03-07T13:10:34.125Z,1.57
2023-03-07T13:13:00.952Z,1.03
2023-03-07T13:16:03.505Z,1.80
2023-03-07T13:18:32.299Z,1.60
2023-03-07T13:21:14.348Z,0.60
2023-03-07T13:23:41.260Z,1.67
2023-03-07T13:26:11.123Z,1.37
2023-03-07T13:28:40.710Z,1.23
2023-03-07T13:31:15.436Z,1.90
2023-03-07T13:33:42.905Z,1.33
2023-03-07T13:36:31.525Z,1.40
2023-03-07T13:38:58.390Z,0.90
2023-03-07T13:41:48.860Z,1.30
2023-03-07T13:44:42.317Z,1.07
2023-03-07T13:47:40.901Z,0.70
2023-03-07T13:50:35.624Z,1.23
2023-03-07T13:53:08.132Z,0.77
2023-03-07T13:56:13.025Z,1.20
2023-03-07T13:58:56.786Z,1.33
2023-03-07T14:01:31.708Z,1.17
2023-03-07T14:04:15.829Z,1.57
2023-03-07T14:06:48.701Z,1.43
2023-03-07T14:09:24.203Z,1.27
2023-03-07T14:12:08.164Z,1.30
2023-03-07T14:15:09.510Z,1.30
2023-03-07T14:18:10.849Z,2.33
2023-03-07T14:21:15.338Z,1.47
2023-03-07T14:23:47.984Z,1.13
2023-03-07T14:26:33.574Z,0.93
2023-03-07T14:29:02.152Z,2.03
2023-03-07T14:31:37.896Z,1.40
2023-03-07T14:34:27.991Z,1.10
2023-03-07T14:36:56.585Z,1.17
2023-03-07T14:39:25.404Z,1.43
2023-03-07T14:42:19.072Z,0.80
2023-03-07T14:45:19.994Z,1.23
2023-03-07T14:48:05.194Z,1.27
2023-03-07T14:50:33.788Z,1.17
2023-03-07T14:53:12.068Z,1.53
2023-03-07T14:55:41.739Z,1.43
2023-03-07T14:58:16.521Z,1.40
2023-03-07T15:00:43.379Z,1.93
2023-03-07T15:03:14.452Z,1.47
2023-03-07T15:05:52.971Z,1.00
2023-03-07T15:08:31.105Z,1.73
2023-03-07T15:11:16.422Z,0.97
2023-03-07T15:13:57.166Z,1.50
2023-03-07T15:16:46.746Z,2.47
2023-03-07T15:19:22.652Z,2.17
2023-03-07T15:21:55.960Z,2.50
2023-03-07T15:24:31.208Z,1.63
2023-03-07T15:27:00.035Z,1.97
2023-03-07T15:29:29.927Z,1.63
2023-03-07T15:32:07.355Z,1.80
2023-03-07T15:34:37.454Z,1.80
2023-03-07T15:37:34.548Z,1.83
2023-03-07T15:40:27.166Z,1.70
2023-03-07T15:42:56.993Z,1.20
2023-03-07T15:45:35.207Z,0.83
2023-03-07T15:48:22.629Z,1.20
2023-03-07T15:50:58.760Z,0.97
2023-03-07T15:53:30.112Z,1.90
2023-03-07T15:55:59.986Z,1.27
2023-03-07T15:58:27.323Z,1.50
2023-03-07T16:01:18.051Z,0.93
2023-03-07T16:03:56.620Z,1.43
2023-03-07T16:06:38.243Z,1.73
2023-03-07T16:09:06.383Z,0.97
2023-03-07T16:11:33.652Z,0.93
2023-03-07T16:14:00.838Z,2.17
2023-03-07T16:16:30.205Z,0.87
2023-03-07T16:18:58.260Z,1.23
2023-03-07T16:21:26.149Z,1.53
2023-03-07T16:23:53.109Z,1.70
2023-03-07T16:26:22.762Z,1.10
2023-03-07T16:28:51.728Z,2.17
2023-03-07T16:31:20.050Z,1.70
2023-03-07T16:33:47.933Z,1.70
2023-03-07T16:36:15.906Z,1.20
2023-03-07T16:38:43.003Z,1.40
2023-03-07T16:41:22.011Z,0.80
2023-03-07T16:43:57.792Z,1.57
2023-03-07T16:46:26.095Z,0.83
2023-03-07T16:48:52.957Z,2.07
2023-03-07T16:51:25.749Z,1.17
2023-03-07T16:53:52.621Z,1.10
2023-03-07T16:56:27.009Z,1.47
2023-03-07T16:58:54.033Z,1.60
2023-03-07T17:01:20.924Z,0.90
2023-03-07T17:03:50.493Z,1.97
2023-03-07T17:06:20.307Z,1.27
2023-03-07T17:08:50.971Z,0.93
2023-03-07T17:11:22.213Z,1.43
2023-03-07T17:13:51.167Z,1.47
2023-03-07T17:16:19.128Z,1.57
2023-03-07T17:18:46.365Z,1.73
2023-03-07T17:21:15.211Z,2.40
2023-03-07T17:23:44.211Z,0.83
2023-03-07T17:26:32.957Z,0.40
2023-03-07T17:29:04.288Z,2.87
2023-03-07T17:31:31.192Z,0.97
2023-03-07T17:33:58.091Z,1.97
2023-03-07T17:36:24.890Z,1.43
2023-03-07T17:38:52.241Z,1.77
2023-03-07T17:41:19.062Z,1.70
2023-03-07T17:43:45.884Z,1.87
2023-03-07T17:46:12.813Z,1.77
2023-03-07T17:48:39.706Z,1.73
2023-03-07T17:51:10.920Z,1.87
2023-03-07T17:53:38.747Z,1.67
2023-03-07T17:56:10.091Z,1.20
2023-03-07T17:58:38.510Z,1.67
2023-03-07T18:01:08.874Z,2.03
2023-03-07T18:03:35.780Z,1.43
2023-03-07T18:06:02.838Z,1.60
2023-03-07T18:08:30.218Z,1.70
2023-03-07T18:11:08.932Z,1.50
2023-03-07T18:13:36.320Z,2.23
2023-03-07T18:16:04.162Z,1.43
2023-03-07T18:18:35.969Z,2.00
2023-03-07T18:21:05.410Z,1.53
2023-03-07T18:23:34.002Z,1.53
2023-03-07T18:26:07.025Z,1.57
2023-03-07T18:28:39.275Z,1.30
2023-03-07T18:31:07.792Z,1.83
2023-03-07T18:33:36.417Z,1.33
2023-03-07T18:36:06.033Z,1.30
2023-03-07T18:38:33.186Z,1.60
2023-03-07T18:41:08.435Z,1.43
2023-03-07T18:43:35.342Z,0.97
2023-03-07T18:46:10.953Z,1.23
2023-03-07T18:48:37.967Z,1.37
2023-03-07T18:51:07.061Z,1.60
2023-03-07T18:53:35.246Z,1.60
2023-03-07T18:56:05.788Z,1.17
2023-03-07T18:58:32.784Z,1.60
2023-03-07T19:01:14.102Z,1.13
2023-03-07T19:03:41.919Z,1.67
2023-03-07T19:06:09.736Z,1.77
2023-03-07T19:08:36.853Z,0.90
2023-03-07T19:11:05.828Z,1.17
2023-03-07T19:13:33.709Z,1.13
2023-03-07T19:16:09.629Z,1.77
2023-03-07T19:18:37.243Z,2.43
2023-03-07T19:21:21.724Z,1.50
2023-03-07T19:23:49.695Z,2.13
2023-03-07T19:26:18.400Z,2.40
2023-03-07T19:28:47.243Z,2.27
2023-03-07T19:31:18.786Z,3.17
2023-03-07T19:33:47.209Z,1.57
2023-03-07T19:36:29.319Z,1.13
2023-03-07T19:38:59.159Z,3.00
2023-03-07T19:41:28.213Z,2.90
2023-03-07T19:43:59.925Z,1.70
2023-03-07T19:46:27.550Z,3.07
2023-03-07T19:48:54.443Z,2.13
2023-03-07T19:51:26.414Z,3.13
2023-03-07T19:53:56.939Z,1.80
2023-03-07T19:56:33.107Z,2.17
2023-03-07T19:59:01.985Z,2.93
2023-03-07T20:01:30.117Z,2.60
2023-03-07T20:03:57.443Z,3.23
2023-03-07T20:06:29.992Z,2.87
2023-03-07T20:08:57.794Z,2.80
2023-03-07T20:11:27.723Z,3.47
2023-03-07T20:13:56.054Z,3.20
2023-03-07T20:16:23.983Z,3.33
2023-03-07T20:18:52.350Z,3.97
2023-03-07T20:21:20.562Z,2.27
2023-03-07T20:23:48.404Z,2.23
2023-03-07T20:26:23.890Z,2.37
2023-03-07T20:28:56.243Z,2.67
2023-03-07T20:31:23.823Z,2.27
2023-03-07T20:33:51.149Z,4.13
2023-03-07T20:36:26.984Z,2.57
2023-03-07T20:38:56.041Z,2.60
2023-03-07T20:41:25.236Z,2.53
2023-03-07T20:43:53.235Z,2.90
2023-03-07T20:46:22.168Z,2.37
2023-03-07T20:48:49.545Z,2.23
2023-03-07T20:51:19.745Z,2.53
2023-03-07T20:53:48.362Z,3.57
2023-03-07T20:56:15.575Z,3.13
2023-03-07T20:58:43.180Z,3.03
2023-03-07T21:01:11.111Z,1.20
2023-03-07T21:03:38.690Z,2.63
2023-03-07T21:06:06.097Z,2.77
2023-03-07T21:08:35.639Z,2.53
2023-03-07T21:11:08.234Z,1.87
2023-03-07T21:13:37.194Z,1.83
2023-03-07T21:16:12.536Z,1.53
2023-03-07T21:18:39.953Z,2.63
2023-03-07T21:21:09.151Z,1.53
2023-03-07T21:23:36.099Z,2.07
2023-03-07T21:26:18.005Z,2.97
2023-03-07T21:28:45.350Z,2.27
2023-03-07T21:31:27.019Z,3.23
2023-03-07T21:33:56.057Z,1.93
2023-03-07T21:36:24.258Z,2.87
2023-03-07T21:38:51.638Z,1.57
2023-03-07T21:41:22.219Z,2.20
2023-03-07T21:43:49.442Z,2.73
2023-03-07T21:46:16.420Z,3.50
2023-03-07T21:48:43.544Z,2.47
2023-03-07T21:51:10.830Z,2.17
2023-03-07T21:53:37.822Z,1.83
2023-03-07T21:56:10.292Z,2.70
2023-03-07T21:58:37.986Z,1.63
2023-03-07T22:01:31.435Z,1.77
2023-03-07T22:04:00.040Z,2.80
2023-03-07T22:06:28.029Z,1.97
2023-03-07T22:08:55.045Z,2.73
2023-03-07T22:11:22.363Z,1.63
2023-03-07T22:13:49.297Z,1.77
2023-03-07T22:16:20.687Z,3.17
2023-03-07T22:18:55.319Z,1.73
2023-03-07T22:21:25.005Z,2.50
2023-03-07T22:23:57.669Z,2.43
2023-03-07T22:26:25.361Z,2.13
2023-03-07T22:28:54.635Z,3.23
2023-03-07T22:31:21.646Z,2.00
2023-03-07T22:33:48.673Z,1.87
2023-03-07T22:36:15.853Z,2.03
2023-03-07T22:38:43.460Z,2.17
2023-03-07T22:41:13.488Z,2.17
2023-03-07T22:43:40.763Z,1.27
2023-03-07T22:46:08.420Z,2.10
2023-03-07T22:48:35.603Z,2.73
2023-03-07T22:51:03.515Z,2.03
2023-03-07T22:53:32.143Z,1.27
2023-03-07T22:55:59.881Z,1.67
2023-03-07T22:58:27.969Z,2.47
2023-03-07T23:00:55.976Z,1.83
2023-03-07T23:03:23.486Z,2.67
2023-03-07T23:05:50.576Z,2.23
2023-03-07T23:08:17.563Z,1.53
2023-03-07T23:10:44.401Z,1.63
2023-03-07T23:13:11.252Z,2.17
2023-03-07T23:15:41.523Z,1.13
2023-03-07T23:18:08.989Z,1.00
2023-03-07T23:20:39.057Z,2.00
2023-03-07T23:23:06.482Z,1.20
2023-03-07T23:25:33.607Z,2.43
2023-03-07T23:28:00.767Z,2.40
2023-03-07T23:30:27.600Z,1.13
2023-03-07T23:32:54.976Z,1.60
2023-03-07T23:35:22.175Z,2.43
2023-03-07T23:37:49.025Z,2.60
2023-03-07T23:40:16.039Z,1.17
2023-03-07T23:42:42.906Z,2.60
2023-03-07T23:45:10.190Z,1.90
2023-03-07T23:47:37.157Z,1.83
2023-03-07T23:50:04.261Z,2.03
2023-03-07T23:52:31.300Z,1.87
2023-03-07T23:54:58.126Z,1.33
2023-03-07T23:57:25.091Z,2.97
2023-03-07T23:59:52.185Z,1.07
